Danner, Oregon
Current Conditions -  °F | °C
As of 9:15 PM on Wednesday 26 Nov 2014 (Local Time) from KMAN Reporting Station
Clear Clear  
Wind Chill: 41°   Ceiling: Unl
Heat Index: 45°   Visibility: 10mi
Dew Point: 41°   Wind: 6mph
Humidity: 87%   Direction: 130°SE
Pressure: 30.18"   Gusts: NA
Location:  42.5961°N, 117.569°W
Report Text: KMAN 270415Z AUTO 13005KT 10SM CLR 07/05 A3018 RMK AO1
Loading
Personal Weather Stations






























Interactive Weather Map New forecast layout! Learn more

10-Day Weather Forecast

Advertisements
Track Severe Weather on mobile